createdAt,value
2023-03-05T00:01:26.824Z,8.48
2023-03-05T00:03:55.147Z,7.75
2023-03-05T00:06:23.222Z,8.10
2023-03-05T00:08:51.545Z,7.60
2023-03-05T00:11:18.653Z,7.97
2023-03-05T00:13:45.767Z,8.20
2023-03-05T00:16:14.621Z,7.57
2023-03-05T00:18:41.892Z,8.23
2023-03-05T00:21:39.572Z,7.75
2023-03-05T00:24:18.363Z,7.82
2023-03-05T00:26:50.648Z,7.65
2023-03-05T00:29:19.626Z,7.63
2023-03-05T00:31:46.797Z,8.40
2023-03-05T00:34:15.424Z,8.18
2023-03-05T00:36:50.075Z,8.73
2023-03-05T00:39:17.761Z,9.00
2023-03-05T00:41:44.885Z,8.52
2023-03-05T00:44:12.335Z,8.70
2023-03-05T00:46:40.587Z,9.00
2023-03-05T00:49:08.277Z,8.48
2023-03-05T00:51:35.580Z,8.60
2023-03-05T00:54:03.187Z,8.27
2023-03-05T00:56:30.382Z,8.27
2023-03-05T00:58:57.539Z,8.77
2023-03-05T01:01:24.829Z,8.60
2023-03-05T01:03:52.000Z,8.43
2023-03-05T01:06:19.200Z,8.63
2023-03-05T01:08:46.281Z,8.48
2023-03-05T01:11:14.205Z,8.70
2023-03-05T01:13:41.174Z,8.88
2023-03-05T01:16:08.589Z,8.43
2023-03-05T01:18:35.831Z,9.13
2023-03-05T01:21:03.375Z,8.73
2023-03-05T01:23:30.352Z,8.40
2023-03-05T01:25:58.418Z,9.07
2023-03-05T01:28:25.961Z,9.10
2023-03-05T01:30:53.302Z,8.95
2023-03-05T01:33:20.382Z,9.57
2023-03-05T01:35:48.505Z,9.63
2023-03-05T01:38:16.056Z,9.30
2023-03-05T01:40:43.969Z,9.18
2023-03-05T01:43:10.912Z,8.30
2023-03-05T01:45:38.494Z,9.57
2023-03-05T01:48:05.674Z,8.90
2023-03-05T01:50:32.628Z,9.35
2023-03-05T01:53:01.892Z,9.35
2023-03-05T01:55:29.493Z,9.27
2023-03-05T01:57:59.914Z,9.35
2023-03-05T02:00:31.822Z,9.02
2023-03-05T02:02:58.950Z,8.88
2023-03-05T02:05:33.703Z,9.15
2023-03-05T02:08:02.869Z,9.50
2023-03-05T02:10:32.606Z,9.05
2023-03-05T02:13:01.605Z,9.25
2023-03-05T02:15:29.351Z,8.95
2023-03-05T02:17:56.504Z,9.73
2023-03-05T02:20:27.852Z,8.80
2023-03-05T02:22:55.040Z,9.55
2023-03-05T02:25:24.213Z,9.68
2023-03-05T02:28:08.665Z,9.45
2023-03-05T02:30:36.031Z,9.30
2023-03-05T02:33:03.602Z,9.05
2023-03-05T02:35:30.966Z,9.05
2023-03-05T02:37:57.986Z,9.40
2023-03-05T02:40:24.946Z,8.95
2023-03-05T02:42:52.023Z,9.55
2023-03-05T02:45:19.320Z,8.85
2023-03-05T02:47:46.496Z,9.60
2023-03-05T02:50:13.454Z,9.02
2023-03-05T02:52:40.750Z,9.57
2023-03-05T02:55:12.310Z,9.18
2023-03-05T02:57:40.403Z,9.18
2023-03-05T03:00:08.384Z,9.95
2023-03-05T03:02:35.604Z,10.30
2023-03-05T03:05:02.893Z,9.98
2023-03-05T03:07:30.044Z,10.30
2023-03-05T03:09:57.053Z,10.15
2023-03-05T03:12:24.021Z,9.73
2023-03-05T03:14:50.996Z,9.77
2023-03-05T03:17:18.571Z,9.55
2023-03-05T03:19:46.093Z,9.15
2023-03-05T03:22:13.847Z,9.60
2023-03-05T03:24:41.363Z,9.25
2023-03-05T03:27:08.595Z,9.25
2023-03-05T03:29:36.844Z,8.70
2023-03-05T03:32:04.813Z,9.38
2023-03-05T03:34:31.870Z,9.90
2023-03-05T03:36:58.848Z,9.15
2023-03-05T03:39:25.786Z,8.55
2023-03-05T03:41:52.989Z,10.13
2023-03-05T03:44:20.624Z,9.60
2023-03-05T03:46:47.864Z,9.68
2023-03-05T03:49:16.729Z,9.48
2023-03-05T03:51:43.682Z,9.65
2023-03-05T03:54:10.716Z,9.80
2023-03-05T03:56:37.846Z,8.73
2023-03-05T03:59:04.793Z,9.40
2023-03-05T04:01:31.777Z,9.75
2023-03-05T04:03:58.777Z,9.35
2023-03-05T04:06:25.774Z,9.88
2023-03-05T04:08:52.870Z,9.77
2023-03-05T04:11:19.981Z,9.02
2023-03-05T04:13:47.484Z,9.95
2023-03-05T04:16:15.059Z,9.45
2023-03-05T04:18:42.184Z,9.30
2023-03-05T04:21:09.343Z,9.68
2023-03-05T04:23:36.390Z,9.07
2023-03-05T04:26:03.444Z,9.50
2023-03-05T04:28:30.407Z,10.07
2023-03-05T04:30:57.666Z,10.32
2023-03-05T04:33:24.612Z,9.65
2023-03-05T04:35:52.363Z,10.07
2023-03-05T04:38:19.453Z,10.70
2023-03-05T04:40:47.136Z,9.38
2023-03-05T04:43:14.159Z,9.93
2023-03-05T04:45:41.785Z,9.90
2023-03-05T04:48:09.225Z,10.73
2023-03-05T04:50:36.296Z,10.00
2023-03-05T04:53:03.417Z,10.82
2023-03-05T04:55:30.417Z,10.88
2023-03-05T04:57:57.618Z,9.57
2023-03-05T05:00:24.875Z,10.00
2023-03-05T05:02:52.057Z,10.32
2023-03-05T05:05:23.700Z,10.90
2023-03-05T05:07:53.449Z,10.63
2023-03-05T05:10:20.491Z,11.05
2023-03-05T05:12:47.539Z,9.95
2023-03-05T05:15:14.835Z,10.60
2023-03-05T05:17:41.818Z,10.27
2023-03-05T05:20:11.535Z,10.55
2023-03-05T05:22:38.630Z,10.82
2023-03-05T05:25:05.954Z,10.65
2023-03-05T05:27:33.440Z,10.27
2023-03-05T05:30:00.829Z,10.50
2023-03-05T05:32:27.977Z,10.65
2023-03-05T05:34:56.242Z,10.45
2023-03-05T05:37:23.340Z,10.65
2023-03-05T05:39:51.126Z,11.02
2023-03-05T05:42:19.008Z,10.40
2023-03-05T05:44:47.045Z,10.68
2023-03-05T05:47:15.278Z,11.07
2023-03-05T05:49:42.283Z,10.75
2023-03-05T05:52:09.463Z,10.48
2023-03-05T05:54:36.542Z,10.68
2023-03-05T05:57:03.670Z,10.27
2023-03-05T05:59:30.816Z,11.25
2023-03-05T06:01:57.908Z,10.60
2023-03-05T06:04:24.958Z,10.60
2023-03-05T06:06:52.036Z,10.18
2023-03-05T06:09:19.042Z,10.77
2023-03-05T06:11:46.072Z,11.07
2023-03-05T06:14:13.118Z,11.05
2023-03-05T06:16:40.466Z,10.65
2023-03-05T06:19:08.969Z,11.63
2023-03-05T06:21:36.421Z,11.30
2023-03-05T06:24:03.711Z,10.10
2023-03-05T06:26:30.883Z,10.73
2023-03-05T06:28:59.231Z,10.40
2023-03-05T06:31:26.952Z,10.90
2023-03-05T06:34:03.792Z,11.13
2023-03-05T06:36:30.862Z,10.85
2023-03-05T06:38:58.005Z,10.60
2023-03-05T06:41:26.930Z,10.82
2023-03-05T06:43:54.049Z,10.73
2023-03-05T06:46:28.900Z,10.82
2023-03-05T06:48:57.243Z,11.18
2023-03-05T06:51:32.247Z,10.82
2023-03-05T06:54:04.786Z,10.35
2023-03-05T06:56:32.043Z,10.80
2023-03-05T06:58:59.390Z,10.68
2023-03-05T07:01:26.606Z,10.35
2023-03-05T07:03:54.332Z,10.80
2023-03-05T07:06:21.644Z,10.38
2023-03-05T07:08:48.955Z,10.13
2023-03-05T07:11:18.082Z,9.95
2023-03-05T07:13:47.814Z,10.85
2023-03-05T07:16:20.372Z,11.10
2023-03-05T07:18:47.592Z,10.50
2023-03-05T07:21:25.199Z,10.80
2023-03-05T07:23:54.158Z,10.40
2023-03-05T07:26:21.261Z,10.15
2023-03-05T07:28:48.182Z,10.55
2023-03-05T07:31:17.953Z,10.27
2023-03-05T07:33:45.992Z,10.32
2023-03-05T07:36:13.193Z,9.45
2023-03-05T07:38:40.456Z,10.20
2023-03-05T07:41:09.458Z,9.95
2023-03-05T07:43:36.619Z,10.35
2023-03-05T07:46:10.291Z,9.98
2023-03-05T07:48:37.542Z,10.07
2023-03-05T07:51:06.030Z,10.45
2023-03-05T07:53:32.984Z,10.10
2023-03-05T07:55:59.964Z,10.05
2023-03-05T07:58:26.976Z,9.77
2023-03-05T08:00:54.219Z,10.27
2023-03-05T08:03:21.380Z,10.20
2023-03-05T08:05:48.442Z,11.13
2023-03-05T08:08:16.463Z,9.98
2023-03-05T08:10:43.447Z,9.80
2023-03-05T08:13:10.534Z,9.68
2023-03-05T08:15:38.194Z,10.55
2023-03-05T08:18:05.279Z,9.95
2023-03-05T08:20:34.889Z,10.63
2023-03-05T08:23:03.298Z,10.52
2023-03-05T08:25:30.419Z,10.13
2023-03-05T08:27:57.383Z,10.18
2023-03-05T08:30:27.259Z,10.60
2023-03-05T08:32:54.912Z,11.18
2023-03-05T08:35:22.244Z,10.95
2023-03-05T08:37:49.361Z,11.10
2023-03-05T08:40:18.199Z,10.43
2023-03-05T08:42:45.409Z,11.13
2023-03-05T08:45:12.671Z,10.75
2023-03-05T08:47:39.754Z,10.50
2023-03-05T08:50:07.213Z,11.23
2023-03-05T08:52:34.597Z,12.65
2023-03-05T08:55:01.566Z,11.27
2023-03-05T08:57:28.609Z,10.70
2023-03-05T08:59:55.550Z,11.57
2023-03-05T09:02:23.241Z,12.13
2023-03-05T09:04:50.338Z,12.65
2023-03-05T09:07:17.318Z,11.70
2023-03-05T09:09:44.386Z,12.45
2023-03-05T09:12:13.420Z,12.25
2023-03-05T09:14:40.928Z,13.05
2023-03-05T09:17:08.129Z,13.02
2023-03-05T09:19:35.084Z,12.43
2023-03-05T09:22:02.075Z,14.10
2023-03-05T09:24:29.207Z,12.88
2023-03-05T09:26:59.858Z,12.52
2023-03-05T09:29:27.802Z,12.65
2023-03-05T09:31:54.910Z,13.07
2023-03-05T09:34:22.834Z,13.02
2023-03-05T09:36:50.064Z,13.30
2023-03-05T09:39:17.387Z,13.98
2023-03-05T09:41:53.489Z,13.43
2023-03-05T09:44:29.685Z,13.82
2023-03-05T09:47:19.994Z,13.38
2023-03-05T09:50:09.031Z,14.18
2023-03-05T09:52:45.854Z,13.85
2023-03-05T09:55:40.906Z,13.60
2023-03-05T09:58:32.308Z,14.25
2023-03-05T10:01:06.445Z,13.67
2023-03-05T10:03:36.484Z,14.57
2023-03-05T10:06:07.451Z,14.45
2023-03-05T10:08:49.274Z,15.60
2023-03-05T10:11:40.061Z,14.65
2023-03-05T10:14:07.701Z,14.60
2023-03-05T10:16:47.828Z,15.82
2023-03-05T10:19:39.439Z,15.65
2023-03-05T10:22:25.387Z,14.65
2023-03-05T10:24:56.212Z,15.68
2023-03-05T10:27:49.761Z,16.02
2023-03-05T10:30:25.545Z,14.65
2023-03-05T10:32:58.224Z,15.68
2023-03-05T10:35:32.678Z,14.95
2023-03-05T10:38:08.866Z,15.77
2023-03-05T10:40:46.130Z,15.88
2023-03-05T10:44:04.448Z,15.77
2023-03-05T10:46:33.114Z,15.57
2023-03-05T10:49:02.799Z,15.93
2023-03-05T10:51:34.267Z,14.52
2023-03-05T10:54:31.519Z,13.80
2023-03-05T10:57:21.664Z,15.02
2023-03-05T11:00:00.895Z,14.48
2023-03-05T11:02:27.972Z,15.10
2023-03-05T11:04:54.994Z,15.80
2023-03-05T11:07:22.846Z,15.75
2023-03-05T11:10:15.268Z,15.38
2023-03-05T11:12:42.205Z,14.68
2023-03-05T11:15:15.332Z,15.48
2023-03-05T11:18:03.339Z,15.18
2023-03-05T11:20:33.259Z,16.10
2023-03-05T11:23:25.512Z,14.95
2023-03-05T11:28:33.294Z,16.45
2023-03-05T11:33:31.160Z,15.88
2023-03-05T11:36:25.603Z,15.98
2023-03-05T11:38:52.776Z,17.52
2023-03-05T11:41:23.423Z,17.15
2023-03-05T11:43:50.993Z,17.23
2023-03-05T11:46:18.952Z,16.88
2023-03-05T11:48:46.246Z,16.50
2023-03-05T11:51:59.407Z,16.17
2023-03-05T11:54:54.307Z,17.23
2023-03-05T11:57:21.471Z,17.02
2023-03-05T11:59:48.435Z,15.90
2023-03-05T12:02:21.065Z,16.00
2023-03-05T12:04:48.183Z,16.42
2023-03-05T12:07:42.256Z,15.77
2023-03-05T12:10:16.523Z,15.60
2023-03-05T12:13:01.032Z,16.48
2023-03-05T12:15:50.862Z,17.10
2023-03-05T12:18:19.868Z,17.00
2023-03-05T12:21:05.030Z,14.85
2023-03-05T12:23:45.836Z,16.17
2023-03-05T12:26:12.768Z,16.58
2023-03-05T12:28:42.995Z,15.40
2023-03-05T12:31:10.077Z,15.70
2023-03-05T12:33:41.842Z,15.75
2023-03-05T12:36:17.764Z,15.48
2023-03-05T12:38:47.720Z,15.10
2023-03-05T12:41:34.504Z,14.93
2023-03-05T12:44:07.687Z,15.80
2023-03-05T12:47:04.348Z,14.57
2023-03-05T12:49:38.360Z,14.55
2023-03-05T12:52:05.581Z,13.57
2023-03-05T12:54:33.411Z,13.57
2023-03-05T12:57:02.634Z,13.05
2023-03-05T12:59:44.320Z,13.23
2023-03-05T13:02:21.753Z,14.50
2023-03-05T13:04:48.849Z,14.27
2023-03-05T13:07:16.828Z,13.23
2023-03-05T13:09:55.362Z,12.70
2023-03-05T13:12:22.581Z,13.10
2023-03-05T13:15:00.228Z,13.80
2023-03-05T13:17:36.215Z,13.20
2023-03-05T13:20:22.736Z,14.00
2023-03-05T13:23:22.017Z,13.70
2023-03-05T13:26:19.048Z,12.75
2023-03-05T13:29:05.333Z,12.65
2023-03-05T13:31:32.681Z,12.20
2023-03-05T13:34:06.991Z,11.85
2023-03-05T13:36:34.681Z,12.38
2023-03-05T13:39:03.934Z,12.70
2023-03-05T13:41:30.911Z,12.23
2023-03-05T13:43:59.337Z,11.52
2023-03-05T13:46:52.805Z,11.52
2023-03-05T13:49:24.547Z,10.68
2023-03-05T13:51:56.130Z,10.77
2023-03-05T13:54:24.288Z,11.45
2023-03-05T13:56:55.163Z,10.98
2023-03-05T13:59:23.773Z,11.73
2023-03-05T14:01:51.123Z,11.27
2023-03-05T14:04:23.991Z,10.77
2023-03-05T14:06:55.457Z,10.45
2023-03-05T14:09:26.792Z,10.98
2023-03-05T14:11:54.631Z,11.43
2023-03-05T14:14:22.620Z,10.82
2023-03-05T14:16:49.925Z,10.82
2023-03-05T14:19:37.626Z,10.45
2023-03-05T14:22:05.288Z,10.55
2023-03-05T14:24:32.499Z,9.98
2023-03-05T14:27:08.839Z,10.20
2023-03-05T14:29:35.819Z,10.35
2023-03-05T14:32:09.149Z,10.60
2023-03-05T14:34:37.720Z,10.30
2023-03-05T14:37:07.185Z,10.20
2023-03-05T14:39:53.994Z,11.00
2023-03-05T14:42:27.391Z,10.45
2023-03-05T14:44:56.094Z,10.70
2023-03-05T14:47:24.754Z,11.20
2023-03-05T14:49:52.030Z,10.90
2023-03-05T14:52:21.629Z,10.57
2023-03-05T14:54:51.233Z,10.75
2023-03-05T14:57:27.291Z,9.70
2023-03-05T14:59:56.791Z,10.50
2023-03-05T15:02:25.766Z,10.55
2023-03-05T15:04:53.879Z,10.60
2023-03-05T15:07:27.640Z,11.43
2023-03-05T15:09:55.422Z,10.55
2023-03-05T15:12:25.919Z,10.75
2023-03-05T15:14:53.703Z,10.15
2023-03-05T15:17:22.989Z,10.63
2023-03-05T15:19:50.106Z,11.10
2023-03-05T15:22:17.234Z,10.25
2023-03-05T15:24:44.411Z,10.65
2023-03-05T15:27:11.563Z,10.55
2023-03-05T15:29:38.717Z,10.40
2023-03-05T15:32:05.959Z,10.68
2023-03-05T15:34:33.832Z,10.98
2023-03-05T15:37:01.700Z,10.30
2023-03-05T15:39:29.182Z,10.38
2023-03-05T15:41:57.109Z,10.98
2023-03-05T15:44:24.328Z,10.82
2023-03-05T15:46:51.446Z,10.68
2023-03-05T15:49:21.695Z,11.25
2023-03-05T15:51:49.514Z,10.45
2023-03-05T15:54:19.160Z,10.40
2023-03-05T15:56:46.678Z,10.93
2023-03-05T15:59:14.414Z,10.50
2023-03-05T16:01:43.570Z,10.30
2023-03-05T16:04:11.426Z,10.52
2023-03-05T16:06:40.087Z,10.85
2023-03-05T16:09:07.326Z,10.15
2023-03-05T16:11:36.272Z,10.00
2023-03-05T16:14:07.472Z,9.90
2023-03-05T16:16:35.658Z,9.32
2023-03-05T16:19:04.850Z,9.80
2023-03-05T16:21:34.098Z,9.73
2023-03-05T16:24:03.181Z,9.68
2023-03-05T16:26:31.128Z,9.48
2023-03-05T16:29:01.546Z,8.30
2023-03-05T16:31:36.221Z,8.25
2023-03-05T16:34:04.827Z,7.80
2023-03-05T16:36:35.578Z,8.98
2023-03-05T16:39:05.117Z,8.70
2023-03-05T16:41:33.296Z,8.90
2023-03-05T16:44:01.716Z,8.13
2023-03-05T16:46:32.828Z,8.60
2023-03-05T16:49:01.985Z,8.15
2023-03-05T16:51:30.410Z,7.95
2023-03-05T16:53:58.637Z,8.45
2023-03-05T16:56:26.652Z,8.48
2023-03-05T16:58:56.394Z,8.13
2023-03-05T17:01:24.809Z,7.78
2023-03-05T17:03:53.693Z,7.85
2023-03-05T17:06:22.845Z,7.50
2023-03-05T17:08:49.937Z,7.70
2023-03-05T17:11:17.249Z,7.93
2023-03-05T17:13:48.692Z,6.78
2023-03-05T17:16:16.827Z,7.57
2023-03-05T17:18:43.812Z,7.32
2023-03-05T17:21:11.001Z,7.53
2023-03-05T17:23:38.216Z,7.30
2023-03-05T17:26:10.437Z,7.15
2023-03-05T17:28:38.098Z,7.35
2023-03-05T17:31:06.338Z,6.90
2023-03-05T17:33:37.349Z,7.13
2023-03-05T17:36:05.300Z,7.18
2023-03-05T17:38:32.811Z,7.70
2023-03-05T17:41:00.135Z,6.95
2023-03-05T17:43:27.175Z,6.28
2023-03-05T17:45:59.557Z,6.97
2023-03-05T17:48:27.373Z,6.50
2023-03-05T17:50:54.759Z,7.10
2023-03-05T17:53:22.735Z,7.03
2023-03-05T17:55:50.237Z,6.85
2023-03-05T17:58:17.725Z,6.90
2023-03-05T18:00:48.167Z,6.50
2023-03-05T18:03:15.755Z,6.60
2023-03-05T18:05:43.262Z,6.65
2023-03-05T18:08:10.418Z,6.90
2023-03-05T18:10:37.665Z,6.95
2023-03-05T18:13:04.722Z,6.38
2023-03-05T18:15:32.564Z,6.43
2023-03-05T18:17:59.825Z,6.00
2023-03-05T18:20:31.378Z,5.90
2023-03-05T18:22:58.989Z,6.22
2023-03-05T18:25:31.008Z,6.30
2023-03-05T18:27:59.909Z,6.22
2023-03-05T18:30:27.041Z,5.60
2023-03-05T18:32:54.138Z,6.38
2023-03-05T18:35:21.264Z,6.45
2023-03-05T18:37:48.312Z,6.38
2023-03-05T18:40:19.487Z,6.22
2023-03-05T18:42:47.324Z,6.40
2023-03-05T18:45:19.197Z,6.57
2023-03-05T18:47:50.226Z,5.90
2023-03-05T18:50:18.798Z,6.78
2023-03-05T18:52:46.032Z,6.45
2023-03-05T18:55:19.952Z,5.90
2023-03-05T18:57:47.076Z,5.60
2023-03-05T19:00:16.709Z,5.97
2023-03-05T19:02:43.684Z,5.97
2023-03-05T19:05:10.746Z,5.38
2023-03-05T19:07:38.127Z,5.97
2023-03-05T19:10:10.023Z,6.43
2023-03-05T19:12:45.535Z,6.10
2023-03-05T19:15:13.643Z,6.03
2023-03-05T19:17:40.927Z,5.85
2023-03-05T19:20:10.207Z,5.88
2023-03-05T19:22:37.195Z,6.30
2023-03-05T19:25:05.511Z,5.80
2023-03-05T19:27:32.643Z,6.28
2023-03-05T19:30:00.389Z,6.07
2023-03-05T19:32:27.606Z,6.30
2023-03-05T19:34:56.037Z,6.35
2023-03-05T19:37:23.110Z,6.70
2023-03-05T19:39:50.154Z,6.78
2023-03-05T19:42:17.285Z,7.20
2023-03-05T19:44:44.272Z,7.07
2023-03-05T19:47:11.231Z,6.93
2023-03-05T19:49:38.414Z,6.63
2023-03-05T19:52:06.334Z,6.82
2023-03-05T19:54:33.345Z,7.20
2023-03-05T19:57:00.356Z,7.35
2023-03-05T19:59:27.347Z,7.15
2023-03-05T20:01:54.449Z,7.25
2023-03-05T20:04:22.352Z,7.25
2023-03-05T20:06:49.357Z,6.90
2023-03-05T20:09:16.594Z,6.30
2023-03-05T20:11:43.777Z,7.07
2023-03-05T20:14:13.118Z,7.55
2023-03-05T20:16:40.503Z,6.85
2023-03-05T20:19:08.025Z,6.88
2023-03-05T20:21:40.324Z,7.40
2023-03-05T20:24:09.936Z,7.07
2023-03-05T20:26:37.744Z,7.15
2023-03-05T20:29:04.963Z,6.53
2023-03-05T20:31:33.944Z,7.50
2023-03-05T20:34:01.061Z,7.63
2023-03-05T20:36:28.013Z,7.20
2023-03-05T20:38:55.910Z,6.93
2023-03-05T20:41:23.049Z,7.38
2023-03-05T20:43:50.990Z,7.05
2023-03-05T20:46:22.777Z,6.78
2023-03-05T20:48:51.482Z,6.97
2023-03-05T20:51:24.393Z,6.57
2023-03-05T20:53:53.758Z,6.97
2023-03-05T20:56:20.955Z,7.30
2023-03-05T20:58:48.003Z,7.65
2023-03-05T21:01:14.994Z,7.40
2023-03-05T21:03:42.094Z,7.32
2023-03-05T21:06:09.066Z,7.85
2023-03-05T21:08:36.190Z,8.60
2023-03-05T21:11:09.894Z,7.90
2023-03-05T21:13:37.073Z,7.80
2023-03-05T21:16:09.098Z,7.93
2023-03-05T21:18:36.404Z,7.43
2023-03-05T21:21:03.620Z,8.32
2023-03-05T21:23:30.565Z,7.75
2023-03-05T21:25:57.550Z,8.68
2023-03-05T21:28:24.708Z,8.30
2023-03-05T21:30:53.264Z,7.65
2023-03-05T21:33:25.369Z,8.18
2023-03-05T21:35:52.915Z,7.50
2023-03-05T21:38:21.654Z,7.65
2023-03-05T21:40:50.173Z,7.65
2023-03-05T21:43:18.031Z,8.13
2023-03-05T21:45:47.404Z,7.82
2023-03-05T21:48:15.305Z,7.97
2023-03-05T21:50:43.434Z,8.23
2023-03-05T21:53:10.524Z,7.47
2023-03-05T21:56:00.465Z,7.82
2023-03-05T21:58:27.575Z,7.80
2023-03-05T22:00:54.819Z,7.68
2023-03-05T22:03:21.822Z,8.27
2023-03-05T22:05:49.077Z,8.05
2023-03-05T22:08:16.053Z,7.95
2023-03-05T22:10:43.127Z,8.00
2023-03-05T22:13:10.903Z,7.80
2023-03-05T22:15:50.050Z,8.07
2023-03-05T22:18:19.248Z,8.00
2023-03-05T22:20:46.439Z,7.93
2023-03-05T22:23:13.804Z,7.57
2023-03-05T22:25:41.210Z,7.90
2023-03-05T22:28:09.384Z,7.30
2023-03-05T22:30:36.551Z,7.72
2023-03-05T22:33:03.688Z,7.10
2023-03-05T22:35:30.814Z,7.40
2023-03-05T22:37:58.298Z,7.25
2023-03-05T22:40:25.397Z,7.72
2023-03-05T22:42:52.435Z,7.45
2023-03-05T22:45:19.424Z,7.20
2023-03-05T22:47:48.519Z,7.93
2023-03-05T22:50:16.664Z,7.68
2023-03-05T22:52:43.884Z,7.82
2023-03-05T22:55:12.470Z,7.75
2023-03-05T22:57:39.435Z,8.00
2023-03-05T23:00:09.378Z,7.53
2023-03-05T23:02:36.474Z,7.25
2023-03-05T23:05:03.599Z,8.13
2023-03-05T23:07:32.189Z,7.53
2023-03-05T23:10:07.693Z,7.57
2023-03-05T23:12:35.955Z,8.32
2023-03-05T23:15:05.058Z,8.07
2023-03-05T23:17:32.048Z,7.50
2023-03-05T23:19:59.035Z,7.75
2023-03-05T23:22:26.053Z,7.93
2023-03-05T23:24:52.997Z,7.78
2023-03-05T23:27:19.984Z,8.23
2023-03-05T23:30:08.885Z,8.32
2023-03-05T23:32:36.272Z,7.82
2023-03-05T23:35:03.366Z,8.07
2023-03-05T23:37:30.361Z,8.27
2023-03-05T23:39:57.289Z,8.10
2023-03-05T23:42:24.329Z,8.50
2023-03-05T23:44:51.259Z,8.35
2023-03-05T23:47:18.222Z,8.80
2023-03-05T23:49:45.209Z,8.45
2023-03-05T23:52:12.211Z,7.97
2023-03-05T23:54:39.247Z,8.13
2023-03-05T23:57:06.282Z,8.27
2023-03-05T23:59:33.301Z,8.02
